LIRA Airport Information

Runway Information
Runway 15 Length 7226 ft width 147 ft
Elevation 341 ft Threshold ft Heading 152
Runway 33 Length 7226 ft Width 147 ft
Elevation 427 ft Threshold ft Heading 332
Airport Frequencies
Type ARR Name ROMA ARR Frequency 119.2 MHZ
Type CLD Name CLNC DEL Frequency 119.4 MHZ
Type DIR Name ROMA DIREC Frequency 119.2 MHZ
Type GND Name GND Frequency 121.75 MHZ
Type TWR Name TWR Frequency 120.5 MHZ
Airport Navaids
Type NDB Name Ciampino Frequency 412 KHZ
Type VOR-DME Name Roma Frequency 110800 KHZ
Airport Weather Information & NOTAM
ADDS - METARS form results

(1537 UTC 26 September 2022)
Data provider http://aviationweather.gov/metar/data/
 
METAR text: LIRA 261520Z 18005KT 9999 FEW040 21/17 Q1007
Conditions at: LIRA (CIAMPINO(IT-AFB/, IT) observed 1520 UTC 26 September 2022
Temperature: 21.0°C (70°F)
Dewpoint: 17.0°C (63°F) [RH = 78%]
Pressure (altimeter): 29.73 inches Hg (1007.0 mb)
Winds: from the S (180 degrees) at 6 MPH (5 knots; 2.6 m/s)
Visibility: 6 or more miles (10+ km)
Ceiling: at least 12,000 feet AGL
Clouds: few clouds at 4000 feet AGL
Weather: no significant weather observed at this time

METAR text: LIRA 261450Z 18007KT 9999 FEW030 SCT040 20/17 Q1007 RERA
Conditions at: LIRA (CIAMPINO(IT-AFB/, IT) observed 1450 UTC 26 September 2022
Temperature: 20.0°C (68°F)
Dewpoint: 17.0°C (63°F) [RH = 83%]
Pressure (altimeter): 29.73 inches Hg (1007.0 mb)
Winds: from the S (180 degrees) at 8 MPH (7 knots; 3.6 m/s)
Visibility: 6 or more miles (10+ km)
Ceiling: at least 12,000 feet AGL
Clouds: few clouds at 3000 feet AGL
scattered clouds at 4000 feet AGL
Weather: no significant weather observed at this time

Forecast for: LIRA (CIAMPINO(IT-AFB/, IT)
Text: TAF LIRA 261100Z 2612/2712 VRB05KT 9999 FEW050
Forecast period: 1200 to 1300 UTC 26 September 2022
Forecast type: FROM: standard forecast or significant change
Winds: variable direction winds at 6 MPH (5 knots; 2.6 m/s)
Visibility: 6 or more miles (10+ km)
Ceiling: at least 12,000 feet AGL
Clouds: few clouds at 5000 feet AGL
Weather: no significant weather forecast for this period
Text: TEMPO 2612/2614 4000 SHRA
Forecast period: 1200 to 1400 UTC 26 September 2022
Forecast type: TEMPORARY: The following changes expected for less than half the time period
Visibility: 2.49 miles (4.01 km)
Ceiling: unknown
Clouds: missing
Weather: SHRA  (rain showers)
Text: BECMG 2613/2615 23010KT
Forecast period: 1300 UTC 26 September 2022 to 1200 UTC 27 September 2022
Forecast type: BECOMING: Conditions expected to become as follows by 1500 UTC 26 September 2022
Winds: from the SW (230 degrees) at 12 MPH (10 knots; 5.1 m/s)
Visibility: 6 or more miles (10+ km)
Ceiling: at least 12,000 feet AGL
Clouds: few clouds at 5000 feet AGL
Weather: no significant weather forecast for this period